sensor_id;sensor_type;location;lat;lon;timestamp;P1;durP1;ratioP1;P2;durP2;ratioP2
73779;SDS011;62093;37.614;15.072;2023-01-16T00:00:59;5.72;;;3.10;;
73779;SDS011;62093;37.614;15.072;2023-01-16T00:03:26;6.13;;;3.38;;
73779;SDS011;62093;37.614;15.072;2023-01-16T00:05:52;5.70;;;3.50;;
73779;SDS011;62093;37.614;15.072;2023-01-16T00:08:18;6.00;;;3.40;;
73779;SDS011;62093;37.614;15.072;2023-01-16T00:10:44;6.80;;;3.50;;
73779;SDS011;62093;37.614;15.072;2023-01-16T00:13:11;5.90;;;3.50;;
73779;SDS011;62093;37.614;15.072;2023-01-16T00:15:38;5.78;;;3.10;;
73779;SDS011;62093;37.614;15.072;2023-01-16T00:18:08;5.80;;;3.20;;
73779;SDS011;62093;37.614;15.072;2023-01-16T00:20:35;6.88;;;3.13;;
73779;SDS011;62093;37.614;15.072;2023-01-16T00:23:01;5.75;;;3.20;;
73779;SDS011;62093;37.614;15.072;2023-01-16T00:25:27;6.18;;;3.40;;
73779;SDS011;62093;37.614;15.072;2023-01-16T00:27:53;6.50;;;3.45;;
73779;SDS011;62093;37.614;15.072;2023-01-16T00:30:19;6.87;;;3.70;;
73779;SDS011;62093;37.614;15.072;2023-01-16T00:32:45;6.57;;;3.28;;
73779;SDS011;62093;37.614;15.072;2023-01-16T00:35:11;5.07;;;2.67;;
73779;SDS011;62093;37.614;15.072;2023-01-16T00:37:37;6.20;;;3.33;;
73779;SDS011;62093;37.614;15.072;2023-01-16T00:40:04;5.60;;;2.80;;
73779;SDS011;62093;37.614;15.072;2023-01-16T00:42:30;6.90;;;3.47;;
73779;SDS011;62093;37.614;15.072;2023-01-16T00:44:56;5.50;;;2.75;;
73779;SDS011;62093;37.614;15.072;2023-01-16T00:47:22;6.03;;;3.15;;
73779;SDS011;62093;37.614;15.072;2023-01-16T00:49:48;5.73;;;3.00;;
73779;SDS011;62093;37.614;15.072;2023-01-16T00:52:14;6.07;;;3.15;;
73779;SDS011;62093;37.614;15.072;2023-01-16T00:54:40;5.47;;;3.00;;
73779;SDS011;62093;37.614;15.072;2023-01-16T00:57:06;5.20;;;2.90;;
73779;SDS011;62093;37.614;15.072;2023-01-16T00:59:32;5.57;;;2.83;;
73779;SDS011;62093;37.614;15.072;2023-01-16T01:01:58;6.13;;;2.83;;
73779;SDS011;62093;37.614;15.072;2023-01-16T01:04:24;5.68;;;3.42;;
73779;SDS011;62093;37.614;15.072;2023-01-16T01:06:50;5.38;;;2.78;;
73779;SDS011;62093;37.614;15.072;2023-01-16T01:09:16;6.13;;;3.22;;
73779;SDS011;62093;37.614;15.072;2023-01-16T01:11:42;6.40;;;2.83;;
73779;SDS011;62093;37.614;15.072;2023-01-16T01:14:08;5.53;;;2.85;;
73779;SDS011;62093;37.614;15.072;2023-01-16T01:16:34;5.85;;;3.05;;
73779;SDS011;62093;37.614;15.072;2023-01-16T01:19:00;5.13;;;3.00;;
73779;SDS011;62093;37.614;15.072;2023-01-16T01:21:26;6.10;;;3.05;;
73779;SDS011;62093;37.614;15.072;2023-01-16T01:23:52;5.38;;;2.58;;
73779;SDS011;62093;37.614;15.072;2023-01-16T01:26:21;5.53;;;2.72;;
73779;SDS011;62093;37.614;15.072;2023-01-16T01:28:47;5.97;;;2.90;;
73779;SDS011;62093;37.614;15.072;2023-01-16T01:31:13;5.35;;;2.97;;
73779;SDS011;62093;37.614;15.072;2023-01-16T01:33:39;6.35;;;3.13;;
73779;SDS011;62093;37.614;15.072;2023-01-16T01:36:06;4.85;;;2.60;;
73779;SDS011;62093;37.614;15.072;2023-01-16T01:38:33;5.55;;;2.67;;
73779;SDS011;62093;37.614;15.072;2023-01-16T01:40:59;5.20;;;2.80;;
73779;SDS011;62093;37.614;15.072;2023-01-16T01:46:53;5.07;;;2.83;;
73779;SDS011;62093;37.614;15.072;2023-01-16T01:49:27;5.30;;;2.58;;
73779;SDS011;62093;37.614;15.072;2023-01-16T01:51:56;5.05;;;2.67;;
73779;SDS011;62093;37.614;15.072;2023-01-16T01:54:29;4.77;;;2.47;;
73779;SDS011;62093;37.614;15.072;2023-01-16T01:59:37;6.50;;;3.55;;
73779;SDS011;62093;37.614;15.072;2023-01-16T02:02:11;5.93;;;3.40;;
73779;SDS011;62093;37.614;15.072;2023-01-16T02:04:42;5.35;;;2.75;;
73779;SDS011;62093;37.614;15.072;2023-01-16T02:07:11;4.47;;;2.57;;
73779;SDS011;62093;37.614;15.072;2023-01-16T02:09:39;5.32;;;2.63;;
73779;SDS011;62093;37.614;15.072;2023-01-16T02:12:09;4.72;;;2.35;;
73779;SDS011;62093;37.614;15.072;2023-01-16T02:14:40;5.22;;;3.00;;
73779;SDS011;62093;37.614;15.072;2023-01-16T02:26:06;5.63;;;2.75;;
73779;SDS011;62093;37.614;15.072;2023-01-16T02:45:02;4.40;;;2.63;;
73779;SDS011;62093;37.614;15.072;2023-01-16T02:47:31;5.67;;;2.70;;
73779;SDS011;62093;37.614;15.072;2023-01-16T02:50:15;5.22;;;2.70;;
73779;SDS011;62093;37.614;15.072;2023-01-16T02:55:23;5.57;;;2.65;;
73779;SDS011;62093;37.614;15.072;2023-01-16T02:57:57;5.18;;;2.72;;
73779;SDS011;62093;37.614;15.072;2023-01-16T03:00:26;5.30;;;2.23;;
73779;SDS011;62093;37.614;15.072;2023-01-16T03:02:54;4.65;;;2.47;;
73779;SDS011;62093;37.614;15.072;2023-01-16T03:05:21;4.57;;;2.33;;
73779;SDS011;62093;37.614;15.072;2023-01-16T03:08:48;5.53;;;2.70;;
73779;SDS011;62093;37.614;15.072;2023-01-16T03:18:59;5.70;;;2.78;;
73779;SDS011;62093;37.614;15.072;2023-01-16T03:21:37;4.60;;;2.50;;
73779;SDS011;62093;37.614;15.072;2023-01-16T03:30:07;5.10;;;2.65;;
73779;SDS011;62093;37.614;15.072;2023-01-16T03:32:39;5.00;;;2.78;;
73779;SDS011;62093;37.614;15.072;2023-01-16T03:35:35;5.45;;;3.00;;
73779;SDS011;62093;37.614;15.072;2023-01-16T03:38:18;5.57;;;2.90;;
73779;SDS011;62093;37.614;15.072;2023-01-16T03:40:46;5.47;;;2.40;;
73779;SDS011;62093;37.614;15.072;2023-01-16T03:43:14;4.75;;;2.65;;
73779;SDS011;62093;37.614;15.072;2023-01-16T03:45:52;5.00;;;2.30;;
73779;SDS011;62093;37.614;15.072;2023-01-16T03:48:19;5.03;;;2.33;;
73779;SDS011;62093;37.614;15.072;2023-01-16T03:50:56;4.50;;;2.20;;
73779;SDS011;62093;37.614;15.072;2023-01-16T03:53:25;4.95;;;2.25;;
73779;SDS011;62093;37.614;15.072;2023-01-16T03:56:01;5.25;;;2.53;;
73779;SDS011;62093;37.614;15.072;2023-01-16T03:58:36;4.55;;;2.33;;
73779;SDS011;62093;37.614;15.072;2023-01-16T04:01:26;5.30;;;2.65;;
73779;SDS011;62093;37.614;15.072;2023-01-16T04:04:20;4.93;;;2.63;;
73779;SDS011;62093;37.614;15.072;2023-01-16T04:09:46;4.68;;;2.47;;
73779;SDS011;62093;37.614;15.072;2023-01-16T04:12:18;4.95;;;2.60;;
73779;SDS011;62093;37.614;15.072;2023-01-16T04:14:51;4.72;;;2.60;;
73779;SDS011;62093;37.614;15.072;2023-01-16T04:17:22;4.53;;;2.27;;
73779;SDS011;62093;37.614;15.072;2023-01-16T04:19:49;5.15;;;2.30;;
73779;SDS011;62093;37.614;15.072;2023-01-16T04:22:21;4.63;;;2.53;;
73779;SDS011;62093;37.614;15.072;2023-01-16T04:24:49;4.70;;;2.20;;
73779;SDS011;62093;37.614;15.072;2023-01-16T04:27:17;4.82;;;2.30;;
73779;SDS011;62093;37.614;15.072;2023-01-16T04:29:44;4.67;;;2.27;;
73779;SDS011;62093;37.614;15.072;2023-01-16T04:32:10;5.13;;;2.30;;
73779;SDS011;62093;37.614;15.072;2023-01-16T04:34:37;4.70;;;2.17;;
73779;SDS011;62093;37.614;15.072;2023-01-16T04:37:03;4.75;;;2.40;;
73779;SDS011;62093;37.614;15.072;2023-01-16T04:39:29;4.45;;;2.42;;
73779;SDS011;62093;37.614;15.072;2023-01-16T04:41:55;4.97;;;2.87;;
73779;SDS011;62093;37.614;15.072;2023-01-16T04:44:21;4.40;;;2.33;;
73779;SDS011;62093;37.614;15.072;2023-01-16T04:46:47;4.30;;;2.10;;
73779;SDS011;62093;37.614;15.072;2023-01-16T04:49:13;4.57;;;2.50;;
73779;SDS011;62093;37.614;15.072;2023-01-16T04:51:39;5.13;;;2.50;;
73779;SDS011;62093;37.614;15.072;2023-01-16T04:54:06;5.18;;;2.47;;
73779;SDS011;62093;37.614;15.072;2023-01-16T04:56:34;5.22;;;2.58;;
73779;SDS011;62093;37.614;15.072;2023-01-16T04:59:01;4.63;;;2.55;;
73779;SDS011;62093;37.614;15.072;2023-01-16T05:01:27;5.27;;;2.80;;
73779;SDS011;62093;37.614;15.072;2023-01-16T05:04:03;6.72;;;2.47;;
73779;SDS011;62093;37.614;15.072;2023-01-16T05:06:31;5.32;;;2.25;;
73779;SDS011;62093;37.614;15.072;2023-01-16T05:08:57;5.15;;;2.30;;
73779;SDS011;62093;37.614;15.072;2023-01-16T05:11:23;4.63;;;2.20;;
73779;SDS011;62093;37.614;15.072;2023-01-16T05:13:49;5.03;;;2.57;;
73779;SDS011;62093;37.614;15.072;2023-01-16T05:16:15;5.40;;;2.72;;
73779;SDS011;62093;37.614;15.072;2023-01-16T05:18:41;4.60;;;2.42;;
73779;SDS011;62093;37.614;15.072;2023-01-16T05:21:07;4.72;;;2.00;;
73779;SDS011;62093;37.614;15.072;2023-01-16T05:23:33;4.50;;;2.10;;
73779;SDS011;62093;37.614;15.072;2023-01-16T05:26:00;4.63;;;2.17;;
73779;SDS011;62093;37.614;15.072;2023-01-16T05:28:26;5.15;;;2.42;;
73779;SDS011;62093;37.614;15.072;2023-01-16T05:30:53;5.50;;;2.65;;
73779;SDS011;62093;37.614;15.072;2023-01-16T05:33:19;4.45;;;2.33;;
73779;SDS011;62093;37.614;15.072;2023-01-16T05:35:46;4.77;;;2.43;;
73779;SDS011;62093;37.614;15.072;2023-01-16T05:38:13;5.25;;;2.42;;
73779;SDS011;62093;37.614;15.072;2023-01-16T05:40:40;4.60;;;2.35;;
73779;SDS011;62093;37.614;15.072;2023-01-16T05:43:07;5.78;;;2.78;;
73779;SDS011;62093;37.614;15.072;2023-01-16T05:45:33;4.43;;;2.25;;
73779;SDS011;62093;37.614;15.072;2023-01-16T05:47:59;4.50;;;2.20;;
73779;SDS011;62093;37.614;15.072;2023-01-16T05:50:25;4.88;;;2.53;;
73779;SDS011;62093;37.614;15.072;2023-01-16T05:52:51;5.18;;;2.30;;
73779;SDS011;62093;37.614;15.072;2023-01-16T05:55:17;4.55;;;2.35;;
73779;SDS011;62093;37.614;15.072;2023-01-16T05:57:43;3.93;;;2.07;;
73779;SDS011;62093;37.614;15.072;2023-01-16T06:00:09;4.97;;;2.40;;
73779;SDS011;62093;37.614;15.072;2023-01-16T06:02:36;4.30;;;2.33;;
73779;SDS011;62093;37.614;15.072;2023-01-16T06:05:03;4.82;;;2.20;;
73779;SDS011;62093;37.614;15.072;2023-01-16T06:07:29;4.47;;;2.42;;
73779;SDS011;62093;37.614;15.072;2023-01-16T06:09:55;5.10;;;2.50;;
73779;SDS011;62093;37.614;15.072;2023-01-16T06:12:21;4.93;;;2.65;;
73779;SDS011;62093;37.614;15.072;2023-01-16T06:14:47;5.40;;;2.50;;
73779;SDS011;62093;37.614;15.072;2023-01-16T06:17:13;4.53;;;2.10;;
73779;SDS011;62093;37.614;15.072;2023-01-16T06:19:40;4.57;;;2.20;;
73779;SDS011;62093;37.614;15.072;2023-01-16T06:22:06;4.70;;;2.30;;
73779;SDS011;62093;37.614;15.072;2023-01-16T06:24:32;4.70;;;2.58;;
73779;SDS011;62093;37.614;15.072;2023-01-16T06:26:58;4.95;;;2.75;;
73779;SDS011;62093;37.614;15.072;2023-01-16T06:29:24;4.60;;;2.30;;
73779;SDS011;62093;37.614;15.072;2023-01-16T06:31:50;4.88;;;2.40;;
73779;SDS011;62093;37.614;15.072;2023-01-16T06:34:16;4.50;;;2.10;;
73779;SDS011;62093;37.614;15.072;2023-01-16T06:36:42;7.43;;;2.50;;
73779;SDS011;62093;37.614;15.072;2023-01-16T06:39:11;4.60;;;2.28;;
73779;SDS011;62093;37.614;15.072;2023-01-16T06:41:37;4.50;;;2.33;;
73779;SDS011;62093;37.614;15.072;2023-01-16T06:44:04;5.38;;;2.30;;
73779;SDS011;62093;37.614;15.072;2023-01-16T06:46:30;4.25;;;2.00;;
73779;SDS011;62093;37.614;15.072;2023-01-16T06:48:56;3.92;;;1.92;;
73779;SDS011;62093;37.614;15.072;2023-01-16T06:51:22;4.82;;;2.17;;
73779;SDS011;62093;37.614;15.072;2023-01-16T06:53:48;4.50;;;2.30;;
73779;SDS011;62093;37.614;15.072;2023-01-16T06:56:14;5.95;;;2.20;;
73779;SDS011;62093;37.614;15.072;2023-01-16T06:58:40;4.55;;;2.13;;
73779;SDS011;62093;37.614;15.072;2023-01-16T07:01:06;4.40;;;2.17;;
73779;SDS011;62093;37.614;15.072;2023-01-16T07:03:32;4.80;;;2.13;;
73779;SDS011;62093;37.614;15.072;2023-01-16T07:05:58;4.60;;;2.40;;
73779;SDS011;62093;37.614;15.072;2023-01-16T07:08:24;4.40;;;2.47;;
73779;SDS011;62093;37.614;15.072;2023-01-16T07:10:50;4.97;;;2.10;;
73779;SDS011;62093;37.614;15.072;2023-01-16T07:13:16;4.50;;;2.30;;
73779;SDS011;62093;37.614;15.072;2023-01-16T07:15:44;5.10;;;2.07;;
73779;SDS011;62093;37.614;15.072;2023-01-16T07:18:30;4.40;;;1.95;;
73779;SDS011;62093;37.614;15.072;2023-01-16T07:21:14;4.20;;;2.20;;
73779;SDS011;62093;37.614;15.072;2023-01-16T07:24:03;5.00;;;2.17;;
73779;SDS011;62093;37.614;15.072;2023-01-16T07:26:32;4.60;;;1.90;;
73779;SDS011;62093;37.614;15.072;2023-01-16T07:28:59;4.70;;;2.13;;
73779;SDS011;62093;37.614;15.072;2023-01-16T07:31:27;5.53;;;2.25;;
73779;SDS011;62093;37.614;15.072;2023-01-16T07:33:55;5.50;;;2.00;;
73779;SDS011;62093;37.614;15.072;2023-01-16T07:36:21;4.18;;;2.20;;
73779;SDS011;62093;37.614;15.072;2023-01-16T07:38:47;4.20;;;2.00;;
73779;SDS011;62093;37.614;15.072;2023-01-16T07:41:13;4.40;;;1.90;;
73779;SDS011;62093;37.614;15.072;2023-01-16T07:43:39;4.68;;;2.20;;
73779;SDS011;62093;37.614;15.072;2023-01-16T07:46:09;4.20;;;1.95;;
73779;SDS011;62093;37.614;15.072;2023-01-16T07:48:35;4.65;;;2.28;;
73779;SDS011;62093;37.614;15.072;2023-01-16T07:51:01;4.67;;;2.20;;
73779;SDS011;62093;37.614;15.072;2023-01-16T07:53:28;5.07;;;2.00;;
73779;SDS011;62093;37.614;15.072;2023-01-16T07:55:56;5.00;;;2.03;;
73779;SDS011;62093;37.614;15.072;2023-01-16T07:58:23;5.80;;;2.53;;
73779;SDS011;62093;37.614;15.072;2023-01-16T08:00:53;4.85;;;2.45;;
73779;SDS011;62093;37.614;15.072;2023-01-16T08:03:20;5.07;;;2.33;;
73779;SDS011;62093;37.614;15.072;2023-01-16T08:05:47;4.68;;;1.85;;
73779;SDS011;62093;37.614;15.072;2023-01-16T08:08:15;4.28;;;2.10;;
73779;SDS011;62093;37.614;15.072;2023-01-16T08:10:42;4.25;;;2.00;;
73779;SDS011;62093;37.614;15.072;2023-01-16T08:13:08;4.78;;;2.10;;
73779;SDS011;62093;37.614;15.072;2023-01-16T08:15:33;4.80;;;2.13;;
73779;SDS011;62093;37.614;15.072;2023-01-16T08:18:00;4.32;;;2.28;;
73779;SDS011;62093;37.614;15.072;2023-01-16T08:20:26;5.35;;;2.60;;
73779;SDS011;62093;37.614;15.072;2023-01-16T08:22:52;4.10;;;2.23;;
73779;SDS011;62093;37.614;15.072;2023-01-16T08:25:20;7.90;;;2.40;;
73779;SDS011;62093;37.614;15.072;2023-01-16T08:27:47;4.80;;;2.33;;
73779;SDS011;62093;37.614;15.072;2023-01-16T08:30:13;5.07;;;2.45;;
73779;SDS011;62093;37.614;15.072;2023-01-16T08:32:41;4.15;;;2.10;;
73779;SDS011;62093;37.614;15.072;2023-01-16T08:35:07;4.07;;;2.20;;
73779;SDS011;62093;37.614;15.072;2023-01-16T08:37:34;4.78;;;2.10;;
73779;SDS011;62093;37.614;15.072;2023-01-16T08:40:00;4.25;;;2.10;;
73779;SDS011;62093;37.614;15.072;2023-01-16T08:42:26;4.68;;;2.33;;
73779;SDS011;62093;37.614;15.072;2023-01-16T08:45:11;4.50;;;2.03;;
73779;SDS011;62093;37.614;15.072;2023-01-16T08:47:56;4.80;;;1.90;;
73779;SDS011;62093;37.614;15.072;2023-01-16T08:50:43;5.10;;;2.08;;
73779;SDS011;62093;37.614;15.072;2023-01-16T08:53:30;4.57;;;2.20;;
73779;SDS011;62093;37.614;15.072;2023-01-16T08:55:56;6.18;;;2.30;;
73779;SDS011;62093;37.614;15.072;2023-01-16T08:58:22;4.57;;;1.83;;
73779;SDS011;62093;37.614;15.072;2023-01-16T09:00:48;4.88;;;1.65;;
73779;SDS011;62093;37.614;15.072;2023-01-16T09:03:15;4.30;;;1.90;;
73779;SDS011;62093;37.614;15.072;2023-01-16T09:05:44;4.70;;;2.10;;
73779;SDS011;62093;37.614;15.072;2023-01-16T09:08:11;4.95;;;2.08;;
73779;SDS011;62093;37.614;15.072;2023-01-16T09:10:37;5.20;;;2.27;;
73779;SDS011;62093;37.614;15.072;2023-01-16T09:13:05;4.63;;;2.00;;
73779;SDS011;62093;37.614;15.072;2023-01-16T09:15:51;6.03;;;2.15;;
73779;SDS011;62093;37.614;15.072;2023-01-16T09:18:17;4.63;;;1.95;;
73779;SDS011;62093;37.614;15.072;2023-01-16T09:20:45;4.55;;;1.80;;
73779;SDS011;62093;37.614;15.072;2023-01-16T09:23:11;5.00;;;2.10;;
73779;SDS011;62093;37.614;15.072;2023-01-16T09:25:37;5.22;;;2.00;;
73779;SDS011;62093;37.614;15.072;2023-01-16T09:28:04;4.60;;;2.03;;
73779;SDS011;62093;37.614;15.072;2023-01-16T09:30:30;6.28;;;2.05;;
73779;SDS011;62093;37.614;15.072;2023-01-16T09:32:56;5.28;;;2.13;;
73779;SDS011;62093;37.614;15.072;2023-01-16T09:35:21;5.33;;;1.87;;
73779;SDS011;62093;37.614;15.072;2023-01-16T09:37:47;5.82;;;2.17;;
73779;SDS011;62093;37.614;15.072;2023-01-16T09:40:23;4.95;;;1.88;;
73779;SDS011;62093;37.614;15.072;2023-01-16T09:45:55;4.97;;;1.97;;
73779;SDS011;62093;37.614;15.072;2023-01-16T09:48:28;4.93;;;1.85;;
73779;SDS011;62093;37.614;15.072;2023-01-16T09:50:57;5.53;;;2.00;;
73779;SDS011;62093;37.614;15.072;2023-01-16T09:53:37;5.20;;;2.03;;
73779;SDS011;62093;37.614;15.072;2023-01-16T09:56:31;4.28;;;2.00;;
73779;SDS011;62093;37.614;15.072;2023-01-16T09:59:24;4.23;;;1.90;;
73779;SDS011;62093;37.614;15.072;2023-01-16T10:01:55;5.05;;;2.00;;
73779;SDS011;62093;37.614;15.072;2023-01-16T10:04:27;6.38;;;1.58;;
73779;SDS011;62093;37.614;15.072;2023-01-16T10:12:20;5.80;;;1.90;;
73779;SDS011;62093;37.614;15.072;2023-01-16T10:14:58;5.60;;;1.95;;
73779;SDS011;62093;37.614;15.072;2023-01-16T10:24:02;4.25;;;1.90;;
73779;SDS011;62093;37.614;15.072;2023-01-16T10:27:00;4.77;;;1.93;;
73779;SDS011;62093;37.614;15.072;2023-01-16T10:29:34;4.32;;;1.80;;
73779;SDS011;62093;37.614;15.072;2023-01-16T10:34:39;5.05;;;1.90;;
73779;SDS011;62093;37.614;15.072;2023-01-16T10:37:17;5.13;;;1.98;;
73779;SDS011;62093;37.614;15.072;2023-01-16T10:39:44;3.87;;;1.60;;
73779;SDS011;62093;37.614;15.072;2023-01-16T10:42:24;4.60;;;1.90;;
73779;SDS011;62093;37.614;15.072;2023-01-16T10:45:15;4.55;;;1.98;;
73779;SDS011;62093;37.614;15.072;2023-01-16T10:48:06;6.40;;;2.10;;
73779;SDS011;62093;37.614;15.072;2023-01-16T10:50:56;4.88;;;1.88;;
73779;SDS011;62093;37.614;15.072;2023-01-16T10:53:23;4.40;;;1.90;;
73779;SDS011;62093;37.614;15.072;2023-01-16T10:55:50;4.90;;;1.98;;
73779;SDS011;62093;37.614;15.072;2023-01-16T11:00:52;5.15;;;1.90;;
73779;SDS011;62093;37.614;15.072;2023-01-16T11:04:04;5.93;;;2.13;;
73779;SDS011;62093;37.614;15.072;2023-01-16T11:06:13;5.07;;;1.73;;
73779;SDS011;62093;37.614;15.072;2023-01-16T11:08:40;4.53;;;1.83;;
73779;SDS011;62093;37.614;15.072;2023-01-16T11:11:09;5.57;;;2.15;;
73779;SDS011;62093;37.614;15.072;2023-01-16T11:13:58;5.22;;;1.83;;
73779;SDS011;62093;37.614;15.072;2023-01-16T11:16:44;4.55;;;2.00;;
73779;SDS011;62093;37.614;15.072;2023-01-16T11:19:28;6.17;;;2.37;;
73779;SDS011;62093;37.614;15.072;2023-01-16T11:22:07;5.07;;;2.25;;
73779;SDS011;62093;37.614;15.072;2023-01-16T11:24:48;5.18;;;2.25;;
73779;SDS011;62093;37.614;15.072;2023-01-16T11:27:19;4.57;;;2.17;;
73779;SDS011;62093;37.614;15.072;2023-01-16T11:29:48;5.50;;;2.17;;
73779;SDS011;62093;37.614;15.072;2023-01-16T11:32:18;4.50;;;1.70;;
73779;SDS011;62093;37.614;15.072;2023-01-16T11:34:52;5.60;;;2.10;;
73779;SDS011;62093;37.614;15.072;2023-01-16T11:37:21;5.40;;;2.28;;
73779;SDS011;62093;37.614;15.072;2023-01-16T11:39:49;5.30;;;1.92;;
73779;SDS011;62093;37.614;15.072;2023-01-16T11:42:17;4.80;;;2.20;;
73779;SDS011;62093;37.614;15.072;2023-01-16T11:48:14;5.50;;;2.50;;
73779;SDS011;62093;37.614;15.072;2023-01-16T11:50:53;4.63;;;1.95;;
73779;SDS011;62093;37.614;15.072;2023-01-16T11:53:21;4.63;;;2.20;;
73779;SDS011;62093;37.614;15.072;2023-01-16T12:04:43;5.88;;;2.30;;
73779;SDS011;62093;37.614;15.072;2023-01-16T12:07:39;5.90;;;2.38;;
73779;SDS011;62093;37.614;15.072;2023-01-16T12:16:13;4.80;;;2.10;;
73779;SDS011;62093;37.614;15.072;2023-01-16T12:21:35;5.07;;;2.25;;
73779;SDS011;62093;37.614;15.072;2023-01-16T12:24:13;6.00;;;2.10;;
73779;SDS011;62093;37.614;15.072;2023-01-16T12:26:49;5.07;;;1.83;;
73779;SDS011;62093;37.614;15.072;2023-01-16T12:35:04;4.60;;;2.10;;
73779;SDS011;62093;37.614;15.072;2023-01-16T12:40:18;4.70;;;2.03;;
73779;SDS011;62093;37.614;15.072;2023-01-16T12:46:02;4.95;;;2.40;;
73779;SDS011;62093;37.614;15.072;2023-01-16T12:51:34;5.38;;;1.90;;
73779;SDS011;62093;37.614;15.072;2023-01-16T13:02:16;4.75;;;2.28;;
73779;SDS011;62093;37.614;15.072;2023-01-16T13:05:07;5.57;;;2.17;;
73779;SDS011;62093;37.614;15.072;2023-01-16T13:07:47;4.70;;;2.10;;
73779;SDS011;62093;37.614;15.072;2023-01-16T13:10:30;5.00;;;2.30;;
73779;SDS011;62093;37.614;15.072;2023-01-16T13:13:19;4.57;;;2.15;;
73779;SDS011;62093;37.614;15.072;2023-01-16T13:18:37;5.22;;;2.05;;
73779;SDS011;62093;37.614;15.072;2023-01-16T13:21:08;5.53;;;1.77;;
73779;SDS011;62093;37.614;15.072;2023-01-16T13:26:10;5.25;;;2.15;;
73779;SDS011;62093;37.614;15.072;2023-01-16T13:28:50;5.43;;;2.15;;
73779;SDS011;62093;37.614;15.072;2023-01-16T13:31:29;5.07;;;2.20;;
73779;SDS011;62093;37.614;15.072;2023-01-16T13:33:59;3.90;;;1.90;;
73779;SDS011;62093;37.614;15.072;2023-01-16T13:42:30;5.10;;;2.35;;
73779;SDS011;62093;37.614;15.072;2023-01-16T13:45:02;4.57;;;2.28;;
73779;SDS011;62093;37.614;15.072;2023-01-16T13:47:51;4.53;;;2.00;;
73779;SDS011;62093;37.614;15.072;2023-01-16T13:50:28;5.20;;;1.90;;
73779;SDS011;62093;37.614;15.072;2023-01-16T13:52:59;4.35;;;1.90;;
73779;SDS011;62093;37.614;15.072;2023-01-16T13:55:35;4.88;;;2.35;;
73779;SDS011;62093;37.614;15.072;2023-01-16T13:58:07;6.05;;;2.22;;
73779;SDS011;62093;37.614;15.072;2023-01-16T14:00:35;4.97;;;2.07;;
73779;SDS011;62093;37.614;15.072;2023-01-16T14:03:24;4.50;;;1.92;;
73779;SDS011;62093;37.614;15.072;2023-01-16T14:06:14;4.40;;;2.42;;
73779;SDS011;62093;37.614;15.072;2023-01-16T14:09:06;4.45;;;2.13;;
73779;SDS011;62093;37.614;15.072;2023-01-16T14:11:57;4.60;;;2.00;;
73779;SDS011;62093;37.614;15.072;2023-01-16T14:14:34;5.73;;;2.40;;
73779;SDS011;62093;37.614;15.072;2023-01-16T14:26:15;4.90;;;2.10;;
73779;SDS011;62093;37.614;15.072;2023-01-16T14:28:46;5.77;;;1.93;;
73779;SDS011;62093;37.614;15.072;2023-01-16T14:31:18;4.40;;;2.10;;
73779;SDS011;62093;37.614;15.072;2023-01-16T14:34:04;4.40;;;2.10;;
73779;SDS011;62093;37.614;15.072;2023-01-16T14:36:32;4.40;;;2.10;;
73779;SDS011;62093;37.614;15.072;2023-01-16T14:39:02;5.03;;;1.88;;
73779;SDS011;62093;37.614;15.072;2023-01-16T14:41:29;4.83;;;2.30;;
73779;SDS011;62093;37.614;15.072;2023-01-16T14:44:19;5.53;;;2.00;;
73779;SDS011;62093;37.614;15.072;2023-01-16T14:47:44;4.18;;;1.90;;
73779;SDS011;62093;37.614;15.072;2023-01-16T14:50:16;4.70;;;1.98;;
73779;SDS011;62093;37.614;15.072;2023-01-16T14:55:56;5.70;;;1.90;;
73779;SDS011;62093;37.614;15.072;2023-01-16T14:58:42;4.53;;;1.90;;
73779;SDS011;62093;37.614;15.072;2023-01-16T15:01:16;7.28;;;2.20;;
73779;SDS011;62093;37.614;15.072;2023-01-16T15:04:09;4.90;;;2.10;;
73779;SDS011;62093;37.614;15.072;2023-01-16T15:06:43;4.68;;;2.00;;
73779;SDS011;62093;37.614;15.072;2023-01-16T15:09:15;4.67;;;2.10;;
73779;SDS011;62093;37.614;15.072;2023-01-16T15:12:02;5.45;;;1.67;;
73779;SDS011;62093;37.614;15.072;2023-01-16T15:14:37;4.85;;;2.13;;
73779;SDS011;62093;37.614;15.072;2023-01-16T15:22:57;4.40;;;2.00;;
73779;SDS011;62093;37.614;15.072;2023-01-16T15:25:29;5.28;;;1.90;;
73779;SDS011;62093;37.614;15.072;2023-01-16T15:30:42;6.00;;;2.40;;
73779;SDS011;62093;37.614;15.072;2023-01-16T15:33:29;4.35;;;1.73;;
73779;SDS011;62093;37.614;15.072;2023-01-16T15:38:53;5.22;;;2.00;;
73779;SDS011;62093;37.614;15.072;2023-01-16T15:41:31;4.63;;;1.63;;
73779;SDS011;62093;37.614;15.072;2023-01-16T15:44:18;6.38;;;2.05;;
73779;SDS011;62093;37.614;15.072;2023-01-16T15:52:53;4.93;;;2.00;;
73779;SDS011;62093;37.614;15.072;2023-01-16T15:55:24;5.43;;;2.13;;
73779;SDS011;62093;37.614;15.072;2023-01-16T15:57:54;4.57;;;2.00;;
73779;SDS011;62093;37.614;15.072;2023-01-16T16:00:30;6.35;;;2.10;;
73779;SDS011;62093;37.614;15.072;2023-01-16T16:03:00;3.97;;;1.73;;
73779;SDS011;62093;37.614;15.072;2023-01-16T16:05:43;4.70;;;2.10;;
73779;SDS011;62093;37.614;15.072;2023-01-16T16:08:14;4.53;;;1.92;;
73779;SDS011;62093;37.614;15.072;2023-01-16T16:10:46;5.30;;;2.33;;
73779;SDS011;62093;37.614;15.072;2023-01-16T16:13:31;5.43;;;2.13;;
73779;SDS011;62093;37.614;15.072;2023-01-16T16:16:01;4.00;;;1.80;;
73779;SDS011;62093;37.614;15.072;2023-01-16T16:18:53;5.85;;;1.88;;
73779;SDS011;62093;37.614;15.072;2023-01-16T16:21:23;5.65;;;2.15;;
73779;SDS011;62093;37.614;15.072;2023-01-16T16:24:35;4.82;;;2.10;;
73779;SDS011;62093;37.614;15.072;2023-01-16T16:27:06;4.72;;;2.10;;
73779;SDS011;62093;37.614;15.072;2023-01-16T16:29:33;5.40;;;2.20;;
73779;SDS011;62093;37.614;15.072;2023-01-16T16:32:01;4.13;;;1.65;;
73779;SDS011;62093;37.614;15.072;2023-01-16T16:34:28;4.28;;;1.85;;
73779;SDS011;62093;37.614;15.072;2023-01-16T16:36:56;5.13;;;2.22;;
73779;SDS011;62093;37.614;15.072;2023-01-16T16:42:00;4.50;;;1.80;;
73779;SDS011;62093;37.614;15.072;2023-01-16T16:44:45;5.32;;;1.95;;
73779;SDS011;62093;37.614;15.072;2023-01-16T16:47:29;4.30;;;1.80;;
73779;SDS011;62093;37.614;15.072;2023-01-16T16:49:56;4.38;;;2.00;;
73779;SDS011;62093;37.614;15.072;2023-01-16T16:52:27;5.00;;;1.88;;
73779;SDS011;62093;37.614;15.072;2023-01-16T16:54:56;5.07;;;2.00;;
73779;SDS011;62093;37.614;15.072;2023-01-16T16:57:25;5.65;;;1.73;;
73779;SDS011;62093;37.614;15.072;2023-01-16T16:59:53;5.47;;;2.08;;
73779;SDS011;62093;37.614;15.072;2023-01-16T17:02:20;4.43;;;1.80;;
73779;SDS011;62093;37.614;15.072;2023-01-16T17:04:48;4.85;;;2.08;;
73779;SDS011;62093;37.614;15.072;2023-01-16T17:07:14;5.37;;;1.87;;
73779;SDS011;62093;37.614;15.072;2023-01-16T17:09:40;5.45;;;1.92;;
73779;SDS011;62093;37.614;15.072;2023-01-16T17:12:14;4.30;;;1.88;;
73779;SDS011;62093;37.614;15.072;2023-01-16T17:14:42;5.13;;;2.20;;
73779;SDS011;62093;37.614;15.072;2023-01-16T17:17:14;4.85;;;2.10;;
73779;SDS011;62093;37.614;15.072;2023-01-16T17:19:43;4.33;;;1.70;;
73779;SDS011;62093;37.614;15.072;2023-01-16T17:22:11;4.00;;;1.83;;
73779;SDS011;62093;37.614;15.072;2023-01-16T17:24:37;5.38;;;2.00;;
73779;SDS011;62093;37.614;15.072;2023-01-16T17:27:05;5.10;;;2.03;;
73779;SDS011;62093;37.614;15.072;2023-01-16T17:29:35;5.15;;;1.75;;
73779;SDS011;62093;37.614;15.072;2023-01-16T17:32:18;6.10;;;2.07;;
73779;SDS011;62093;37.614;15.072;2023-01-16T17:34:55;4.50;;;2.03;;
73779;SDS011;62093;37.614;15.072;2023-01-16T17:37:22;4.63;;;1.73;;